Academy, South Dakota
Current Conditions -  °F | °C
As of 1:55 PM on Thursday 23 Oct 2014 (Local Time) from K9V9 Reporting Station
Clear Clear  
Wind Chill: 66°   Ceiling: Unl
Heat Index: 66°   Visibility: 10mi
Dew Point: 43°   Wind: 7mph
Humidity: 43%   Direction: 200°SSW
Pressure: 29.95"   Gusts: NA
Location:  43.4255°N, 98.9806°W
Report Text: K9V9 231855Z AUTO 20006KT 10SM CLR 19/06 A2995 RMK AO2 T01900061
Loading
Personal Weather Stations






























Interactive Weather Map
Tropical Storm Tracking
New forecast layout! Learn more

10-Day Weather Forecast

Advertisements
Track Severe Weather on mobile